Time;durP1;ratioP1;P1;durP2;ratioP2;P2;SDS_P1;SDS_P2;PMS_P1;PMS_P2;Temp;Humidity;BMP_temperature;BMP_pressure;BME280_temperature;BME280_humidity;BME280_pressure;Samples;Min_cycle;Max_cycle;Signal;HPM_P1;HPM_P2
2023/04/02 00:00:08;;;;;;;38.92;23.48;;;;;;;18.24;51.85;101342.97;5048874;28;20052;-45
2023/04/02 00:03:00;;;;;;;39.35;23.83;;;;;;;18.22;51.41;101336.91;5056954;28;20422;-43
2023/04/02 00:05:49;;;;;;;38.15;23.58;;;;;;;18.21;51.85;101343.28;5057659;28;20044;-43
2023/04/02 00:08:23;;;;;;;38.92;23.88;;;;;;;18.21;51.65;101345.09;5059171;28;20056;-44
2023/04/02 00:10:56;;;;;;;35.90;21.30;;;;;;;18.18;51.96;101350.75;5055454;28;20053;-45
2023/04/02 00:13:27;;;;;;;;;;;;;;;18.16;51.87;101350.88;5058313;28;20055;-43
2023/04/02 00:15:56;;;;;;;34.35;20.85;;;;;;;18.18;51.74;101351.59;5053065;28;20224;-45
2023/04/02 00:18:25;;;;;;;35.97;21.75;;;;;;;18.14;51.84;101355.56;5055288;28;20053;-44
2023/04/02 00:21:11;;;;;;;32.63;20.77;;;;;;;18.12;52.02;101367.41;5056894;28;20059;-46
2023/04/02 00:23:40;;;;;;;32.42;19.60;;;;;;;18.11;51.64;101363.03;5049902;28;20076;-45
2023/04/02 00:26:38;;;;;;;32.13;19.90;;;;;;;18.05;51.91;101367.16;5047698;28;20343;-45
2023/04/02 00:29:06;;;;;;;34.30;20.33;;;;;;;18.06;51.73;101379.56;5046788;28;20152;-44
2023/04/02 00:31:36;;;;;;;34.47;21.08;;;;;;;18.06;51.88;101384.09;5049829;28;20051;-46
2023/04/02 00:34:03;;;;;;;31.80;20.25;;;;;;;18.05;51.87;101390.41;5049897;28;20045;-45
2023/04/02 00:36:35;;;;;;;34.05;19.55;;;;;;;18.02;52.04;101380.84;5050632;28;20048;-43
2023/04/02 00:39:06;;;;;;;31.85;19.15;;;;;;;18.01;52.26;101403.28;5050414;28;20132;-46
2023/04/02 00:41:37;;;;;;;31.65;19.48;;;;;;;18.00;51.94;101406.94;5051370;28;20045;-44
2023/04/02 00:44:04;;;;;;;29.50;18.50;;;;;;;17.98;51.79;101401.72;5049126;28;20053;-44
2023/04/02 00:46:45;;;;;;;29.00;18.25;;;;;;;17.96;51.92;101409.03;5042820;28;20053;-44
2023/04/02 00:49:30;;;;;;;30.25;17.83;;;;;;;17.94;52.06;101420.91;5052298;28;20337;-44
2023/04/02 00:52:00;;;;;;;30.95;18.60;;;;;;;17.95;51.99;101428.81;5056100;28;20136;-47
2023/04/02 00:54:31;;;;;;;28.30;18.15;;;;;;;17.93;52.26;101421.88;5056103;28;20047;-44
2023/04/02 00:56:58;;;;;;;31.90;18.90;;;;;;;17.91;51.82;101430.06;5056940;28;20140;-45
2023/04/02 00:59:32;;;;;;;28.33;17.98;;;;;;;17.91;52.12;101440.81;5057328;28;20061;-44
2023/04/02 01:02:13;;;;;;;28.67;17.27;;;;;;;17.89;51.88;101431.19;5056173;28;20124;-45
2023/04/02 01:04:40;;;;;;;28.50;16.88;;;;;;;17.88;52.03;101434.88;5055052;28;20457;-44
2023/04/02 01:07:11;;;;;;;28.08;16.10;;;;;;;17.88;52.06;101445.59;5058490;28;20052;-44
2023/04/02 01:10:17;;;;;;;28.40;17.05;;;;;;;17.84;51.93;101445.00;5056384;28;20051;-44
2023/04/02 01:12:54;;;;;;;24.88;15.52;;;;;;;17.84;52.03;101454.91;5050045;28;20045;-45
2023/04/02 01:15:32;;;;;;;28.10;17.05;;;;;;;17.82;52.06;101449.69;5049569;28;20364;-44
2023/04/02 01:18:12;;;;;;;24.88;15.27;;;;;;;17.82;51.92;101452.38;5052300;28;20094;-44
2023/04/02 01:20:48;;;;;;;22.80;14.30;;;;;;;17.80;51.81;101478.44;5051680;28;20458;-43
2023/04/02 01:23:28;;;;;;;25.73;16.13;;;;;;;17.78;52.02;101469.72;5050852;28;20351;-44
2023/04/02 01:26:21;;;;;;;24.33;14.93;;;;;;;17.74;52.12;101474.50;5053156;28;20057;-44
2023/04/02 01:29:01;;;;;;;24.15;14.80;;;;;;;17.74;52.58;101476.31;5053516;28;20044;-43
2023/04/02 01:31:29;;;;;;;24.58;14.68;;;;;;;17.73;51.87;101480.81;5045837;28;20041;-43
2023/04/02 01:33:56;;;;;;;21.83;13.93;;;;;;;17.72;51.92;101494.34;5054012;28;20085;-45
2023/04/02 01:36:48;;;;;;;23.42;14.32;;;;;;;17.70;51.91;101493.66;5053522;28;20044;-44
2023/04/02 01:39:29;;;;;;;25.50;14.48;;;;;;;17.68;52.20;101499.13;5052180;28;20052;-43
2023/04/02 01:42:13;;;;;;;22.55;13.90;;;;;;;17.66;52.01;101501.09;5050830;28;20048;-44
2023/04/02 01:44:49;;;;;;;22.67;13.83;;;;;;;17.65;52.21;101509.28;5052526;28;20187;-44
2023/04/02 01:47:20;;;;;;;20.92;13.23;;;;;;;17.65;52.24;101517.34;5050039;28;20052;-44
2023/04/02 01:49:47;;;;;;;18.83;12.18;;;;;;;17.64;52.13;101513.78;5054416;28;20113;-43
2023/04/02 01:52:34;;;;;;;20.63;12.80;;;;;;;17.63;52.39;101519.28;5053197;28;20503;-45
2023/04/02 01:55:01;;;;;;;21.63;12.70;;;;;;;17.61;52.07;101519.44;5050200;28;20239;-44
2023/04/02 01:57:28;;;;;;;21.25;12.63;;;;;;;17.59;52.05;101526.75;5054097;28;20056;-44
2023/04/02 01:59:55;;;;;;;19.08;11.90;;;;;;;17.59;52.14;101531.25;5051273;28;20055;-44
2023/04/02 02:02:22;;;;;;;18.85;11.80;;;;;;;17.57;51.74;101528.72;5053286;28;20041;-43
2023/04/02 02:04:48;;;;;;;18.58;11.70;;;;;;;17.57;51.80;101542.13;5052437;28;20052;-44
2023/04/02 02:07:19;;;;;;;17.98;11.23;;;;;;;17.55;51.94;101541.41;5052540;28;20090;-44
2023/04/02 02:09:47;;;;;;;17.00;11.00;;;;;;;17.55;51.99;101548.59;5052477;28;20053;-43
2023/04/02 02:12:14;;;;;;;21.02;11.95;;;;;;;17.54;52.05;101554.94;5055000;28;20427;-44
2023/04/02 02:14:49;;;;;;;16.52;10.95;;;;;;;17.52;51.88;101557.75;5049497;28;20049;-44
2023/04/02 02:17:22;;;;;;;18.65;10.95;;;;;;;17.51;51.89;101558.72;5050832;28;20076;-44
2023/04/02 02:19:54;;;;;;;18.67;11.85;;;;;;;17.50;52.03;101565.06;5050044;28;20053;-43
2023/04/02 02:22:27;;;;;;;17.45;11.02;;;;;;;17.50;52.11;101567.75;5048621;28;20322;-45
2023/04/02 02:24:56;;;;;;;16.40;10.27;;;;;;;17.49;52.02;101568.75;5049240;28;20262;-45
2023/04/02 02:27:22;;;;;;;15.93;10.02;;;;;;;17.48;51.81;101578.59;5053663;28;20049;-43
2023/04/02 02:30:01;;;;;;;17.38;10.52;;;;;;;17.47;52.18;101582.25;5048106;28;20042;-44
2023/04/02 02:32:32;;;;;;;16.42;10.55;;;;;;;17.47;52.23;101586.78;5049983;28;20041;-44
2023/04/02 02:35:18;;;;;;;16.00;10.15;;;;;;;17.45;51.77;101589.59;5051134;28;20106;-43
2023/04/02 02:37:49;;;;;;;15.40;9.30;;;;;;;17.46;52.07;101593.13;5048621;28;20128;-42
2023/04/02 02:40:25;;;;;;;15.13;9.48;;;;;;;17.45;52.14;101596.78;5050699;28;20056;-43
2023/04/02 02:42:59;;;;;;;17.10;10.00;;;;;;;17.43;52.00;101602.25;5052084;28;20055;-44
2023/04/02 02:45:31;;;;;;;16.92;10.02;;;;;;;17.42;52.06;101605.94;5048695;28;20068;-45
2023/04/02 02:48:01;;;;;;;15.25;9.38;;;;;;;17.41;52.05;101609.59;5050339;28;20057;-45
2023/04/02 02:50:30;;;;;;;14.60;8.80;;;;;;;17.41;52.19;101625.69;5050220;28;20053;-43
2023/04/02 02:52:59;;;;;;;13.52;8.77;;;;;;;17.39;52.35;101622.25;5050415;28;20178;-42
2023/04/02 02:55:33;;;;;;;14.52;8.75;;;;;;;17.38;52.11;101625.94;5050256;28;20049;-44
2023/04/02 02:58:18;;;;;;;14.27;8.85;;;;;;;17.35;52.48;101625.34;5051432;28;20059;-43
2023/04/02 03:00:46;;;;;;;13.85;8.45;;;;;;;17.36;51.39;101632.41;5050226;28;20059;-44
2023/04/02 03:03:17;;;;;;;13.32;8.45;;;;;;;17.34;51.79;101632.53;5051571;28;20120;-42
2023/04/02 03:05:51;;;;;;;13.25;8.25;;;;;;;17.32;52.08;101645.19;5048802;28;20040;-42
2023/04/02 03:08:54;;;;;;;14.63;8.77;;;;;;;17.28;52.03;101654.47;5051228;28;20059;-43
2023/04/02 03:12:00;;;;;;;12.98;8.55;;;;;;;17.30;51.77;101660.56;5031655;28;20467;-46
2023/04/02 03:14:40;;;;;;;11.68;7.57;;;;;;;17.28;52.01;101668.72;5050414;28;20053;-43
2023/04/02 03:17:17;;;;;;;13.07;7.68;;;;;;;17.28;52.05;101678.59;5051903;28;20132;-46
2023/04/02 03:20:13;;;;;;;12.85;7.97;;;;;;;17.25;52.39;101674.34;5049132;28;20057;-46
2023/04/02 03:22:51;;;;;;;11.57;7.70;;;;;;;17.25;52.20;101682.38;5050738;28;20063;-46
2023/04/02 03:26:00;;;;;;;12.13;7.32;;;;;;;17.25;51.93;101689.59;5051071;28;20352;-45
2023/04/02 03:28:32;;;;;;;13.10;7.38;;;;;;;17.25;51.79;101692.25;5018885;28;20052;-47
2023/04/02 03:31:14;;;;;;;10.90;7.13;;;;;;;17.22;52.00;101701.38;5050111;28;20345;-44
2023/04/02 03:33:46;;;;;;;11.73;7.55;;;;;;;17.18;52.36;101705.31;5049282;28;20103;-45
2023/04/02 03:36:27;;;;;;;10.68;7.07;;;;;;;17.21;52.57;101710.41;5065870;28;20087;-46
2023/04/02 03:39:15;;;;;;;12.25;6.63;;;;;;;17.33;52.46;101723.78;5051148;28;20045;-44
2023/04/02 03:41:55;;;;;;;11.13;6.88;;;;;;;17.44;51.72;101721.03;5050929;28;20041;-45
2023/04/02 03:44:48;;;;;;;9.98;6.32;;;;;;;17.54;51.45;101730.00;5052006;28;20053;-46
2023/04/02 03:47:32;;;;;;;9.15;5.90;;;;;;;17.64;51.63;101735.44;5051002;28;20409;-45
2023/04/02 03:50:10;;;;;;;8.48;5.97;;;;;;;17.71;50.97;101742.84;5049998;28;20456;-46
2023/04/02 03:52:37;;;;;;;10.52;6.15;;;;;;;17.77;50.94;101752.25;5052228;28;20425;-46
2023/04/02 03:55:19;;;;;;;10.70;6.32;;;;;;;17.83;50.89;101758.91;5050942;28;20055;-47
2023/04/02 03:57:59;;;;;;;10.05;6.43;;;;;;;17.88;50.55;101756.69;5052722;28;20408;-46
2023/04/02 04:00:37;;;;;;;9.98;5.65;;;;;;;17.90;50.69;101758.25;5049577;28;20067;-47
2023/04/02 04:03:25;;;;;;;9.45;6.18;;;;;;;17.93;50.37;101759.81;5050459;28;20116;-47
2023/04/02 04:05:58;;;;;;;11.30;6.10;;;;;;;17.96;50.51;101773.81;5052252;28;20048;-45
2023/04/02 04:08:45;;;;;;;8.65;5.72;;;;;;;17.98;50.54;101773.72;5051356;28;20053;-45
2023/04/02 04:11:21;;;;;;;9.63;5.65;;;;;;;18.00;50.08;101777.09;5052649;28;20076;-49
2023/04/02 04:13:59;;;;;;;8.73;5.85;;;;;;;18.01;50.19;101786.88;5051246;28;20068;-47
2023/04/02 04:16:34;;;;;;;9.75;5.65;;;;;;;18.02;50.09;101791.25;5049059;28;20068;-45
2023/04/02 04:19:03;;;;;;;7.90;4.70;;;;;;;18.03;49.97;101800.97;5049405;28;20447;-46
2023/04/02 04:21:36;;;;;;;8.13;5.63;;;;;;;18.03;50.00;101806.34;5049451;28;20072;-45
2023/04/02 04:24:06;;;;;;;8.98;5.22;;;;;;;18.02;50.27;101812.69;5051339;28;20071;-47
2023/04/02 04:26:43;;;;;;;8.73;5.43;;;;;;;18.02;50.14;101810.03;5051703;28;20344;-47
2023/04/02 04:29:26;;;;;;;8.15;5.25;;;;;;;18.02;49.70;101815.38;5049873;28;20447;-47
2023/04/02 04:31:54;;;;;;;8.57;4.95;;;;;;;18.01;49.17;101824.41;5047448;28;20532;-46
2023/04/02 04:34:45;;;;;;;9.35;4.82;;;;;;;17.98;49.92;101830.03;5050326;28;20053;-46
2023/04/02 04:37:40;;;;;;;6.93;4.80;;;;;;;17.90;49.97;101833.34;5051011;28;20104;-45
2023/04/02 04:40:17;;;;;;;6.75;4.80;;;;;;;17.85;49.78;101848.13;5049578;28;20049;-44
2023/04/02 04:42:47;;;;;;;6.93;4.25;;;;;;;17.78;49.98;101845.13;5051269;28;20044;-44
2023/04/02 04:45:39;;;;;;;7.30;4.72;;;;;;;17.69;50.44;101851.22;5046304;28;20056;-45
2023/04/02 04:48:16;;;;;;;8.10;4.90;;;;;;;17.66;50.56;101854.13;5053490;28;20049;-45
2023/04/02 04:51:00;;;;;;;7.72;4.32;;;;;;;17.68;50.54;101861.06;5041462;28;20440;-45
2023/04/02 04:53:28;;;;;;;9.23;4.78;;;;;;;17.73;50.38;101866.91;5042515;28;20340;-46
2023/04/02 04:56:01;;;;;;;6.75;4.47;;;;;;;17.79;50.53;101870.94;5046432;28;20052;-44
2023/04/02 04:58:46;;;;;;;7.47;5.10;;;;;;;17.85;50.15;101877.63;5047814;28;20045;-44
2023/04/02 05:01:23;;;;;;;7.32;4.80;;;;;;;17.89;50.38;101887.09;5052012;28;20060;-48
2023/04/02 05:04:02;;;;;;;7.00;4.78;;;;;;;17.92;50.17;101886.84;5048272;28;20041;-44
2023/04/02 05:06:43;;;;;;;6.20;4.10;;;;;;;17.94;49.97;101891.13;5050590;28;20851;-45
2023/04/02 05:09:23;;;;;;;6.72;4.15;;;;;;;17.96;49.85;101899.88;5053421;28;20056;-44
2023/04/02 05:12:24;;;;;;;5.70;4.20;;;;;;;17.97;50.20;101911.50;5052108;28;20344;-45
2023/04/02 05:15:31;;;;;;;6.70;3.70;;;;;;;17.97;50.02;101909.66;5048647;28;20056;-45
2023/04/02 05:18:15;;;;;;;5.55;3.80;;;;;;;17.98;49.80;101913.19;5037539;28;20053;-47
2023/04/02 05:20:55;;;;;;;6.18;4.05;;;;;;;17.99;49.69;101930.97;5051550;28;20049;-45
2023/04/02 05:23:27;;;;;;;5.15;3.55;;;;;;;18.00;49.70;101927.31;5049592;28;20084;-45
2023/04/02 05:26:10;;;;;;;6.07;3.90;;;;;;;18.00;49.34;101935.34;5052294;28;20045;-46
2023/04/02 05:28:46;;;;;;;5.87;3.70;;;;;;;18.00;49.21;101938.03;5049276;28;20049;-45
2023/04/02 05:31:18;;;;;;;7.22;4.28;;;;;;;18.00;50.02;101951.47;5052339;28;20057;-45
2023/04/02 05:33:47;;;;;;;7.97;4.35;;;;;;;17.98;49.36;101959.63;5048693;28;20072;-45
2023/04/02 05:36:21;;;;;;;7.55;4.88;;;;;;;17.96;49.80;101963.41;5048057;28;20055;-46
2023/04/02 05:38:50;;;;;;;7.88;4.07;;;;;;;17.94;49.65;101962.72;5051489;28;20048;-46
2023/04/02 05:41:38;;;;;;;5.80;3.75;;;;;;;17.92;49.30;101970.00;5050320;28;20102;-46
2023/04/02 05:44:06;;;;;;;6.78;4.50;;;;;;;17.89;49.30;101981.88;5051251;28;20051;-45
2023/04/02 05:46:40;;;;;;;6.28;4.38;;;;;;;17.85;49.68;102001.88;5049665;28;20049;-45
2023/04/02 05:49:12;;;;;;;7.30;4.53;;;;;;;17.79;49.55;102005.03;5048065;28;20140;-45
2023/04/02 05:51:44;;;;;;;7.50;4.25;;;;;;;17.72;49.38;102012.66;5051294;28;20052;-46
2023/04/02 05:54:29;;;;;;;8.68;4.60;;;;;;;17.62;49.70;102025.13;5049960;28;20453;-45
2023/04/02 05:57:03;;;;;;;7.32;4.65;;;;;;;17.55;49.96;102031.94;5050414;28;20052;-45
2023/04/02 05:59:36;;;;;;;8.40;4.80;;;;;;;17.47;49.92;102031.69;5051063;28;20436;-46
2023/04/02 06:02:21;;;;;;;8.27;5.00;;;;;;;17.44;50.55;102038.13;5044304;28;20440;-45
2023/04/02 06:05:00;;;;;;;7.57;4.80;;;;;;;17.52;50.18;102048.25;5049247;28;20041;-44
2023/04/02 06:07:53;;;;;;;7.15;4.75;;;;;;;17.63;50.28;102048.25;5051641;28;20140;-48
2023/04/02 06:10:27;;;;;;;9.32;5.30;;;;;;;17.76;49.79;102059.75;5050435;28;20500;-45
2023/04/02 06:13:01;;;;;;;8.48;5.35;;;;;;;17.87;49.62;102066.09;5050495;28;20049;-46
2023/04/02 06:15:29;;;;;;;9.70;5.35;;;;;;;17.98;49.13;102061.56;5048887;28;20092;-45
2023/04/02 06:18:18;;;;;;;9.05;5.55;;;;;;;18.10;49.39;102067.78;5052514;28;20144;-44
2023/04/02 06:20:46;;;;;;;9.88;5.70;;;;;;;18.23;49.23;102083.75;5048207;28;20395;-46
2023/04/02 06:23:19;;;;;;;9.40;5.90;;;;;;;18.33;48.63;102083.81;5050966;28;20424;-43
2023/04/02 06:25:57;;;;;;;;;;;;;;;18.42;48.76;102089.31;5049047;28;20053;-44
2023/04/02 06:28:29;;;;;;;10.63;6.35;;;;;;;18.54;48.70;102091.97;5047033;28;19943;-43
2023/04/02 06:31:00;;;;;;;11.93;7.22;;;;;;;18.63;48.35;102096.56;5046418;28;20440;-45
2023/04/02 06:33:26;;;;;;;13.00;7.25;;;;;;;18.71;48.08;102096.81;5049766;28;20091;-43
2023/04/02 06:35:54;;;;;;;14.63;7.93;;;;;;;18.79;48.23;102115.00;5047697;28;20080;-43
2023/04/02 06:38:28;;;;;;;13.02;7.80;;;;;;;18.87;48.02;102115.19;5049568;28;20077;-44
2023/04/02 06:41:00;;;;;;;14.55;8.57;;;;;;;18.92;47.54;102121.88;5046365;28;20048;-44
2023/04/02 06:44:15;;;;;;;18.85;10.85;;;;;;;19.01;47.52;102128.31;5049246;28;20049;-44
2023/04/02 06:46:47;;;;;;;24.88;13.70;;;;;;;19.08;47.39;102142.94;5001873;28;20049;-43
2023/04/02 06:49:35;;;;;;;21.85;12.93;;;;;;;19.12;47.03;102144.41;5008110;28;20456;-45
2023/04/02 06:52:05;;;;;;;19.83;11.38;;;;;;;19.15;47.21;102154.91;5025601;28;20053;-44
2023/04/02 06:54:31;;;;;;;21.17;11.65;;;;;;;19.17;47.55;102158.28;5045062;28;20487;-44
2023/04/02 06:56:58;;;;;;;20.20;11.05;;;;;;;19.14;47.21;102153.19;5046949;28;20049;-45
2023/04/02 06:59:25;;;;;;;22.17;12.15;;;;;;;19.12;46.78;102160.53;5049740;28;20045;-45
2023/04/02 07:01:53;;;;;;;18.85;11.90;;;;;;;19.06;47.09;102163.75;5040245;28;20344;-44
2023/04/02 07:04:21;;;;;;;21.75;12.38;;;;;;;18.98;47.20;102164.38;5047895;28;20134;-45
2023/04/02 07:06:47;;;;;;;20.20;12.13;;;;;;;18.92;47.34;102161.34;5047856;28;20052;-43
2023/04/02 07:09:14;;;;;;;22.98;13.60;;;;;;;18.86;47.36;102173.47;5046924;28;20049;-48
2023/04/02 07:11:41;;;;;;;23.80;14.05;;;;;;;18.79;47.58;102184.84;5046750;28;20410;-44
2023/04/02 07:14:11;;;;;;;24.20;13.00;;;;;;;18.73;47.95;102186.16;5049087;28;20067;-44
2023/04/02 07:16:40;;;;;;;23.63;12.68;;;;;;;18.69;47.57;102203.47;5042179;28;20056;-45
2023/04/02 07:19:15;;;;;;;24.20;14.20;;;;;;;18.62;47.78;102204.97;5048558;28;20055;-47
2023/04/02 07:21:41;;;;;;;25.05;14.65;;;;;;;18.57;47.68;102213.38;5048548;28;20077;-46
2023/04/02 07:24:08;;;;;;;24.40;13.95;;;;;;;18.52;47.88;102212.91;5049701;28;20043;-45
2023/04/02 07:26:34;;;;;;;23.10;12.95;;;;;;;18.48;47.58;102212.28;5049043;28;20052;-48
2023/04/02 07:29:01;;;;;;;23.00;12.95;;;;;;;18.47;47.66;102217.81;5045510;28;20045;-48
2023/04/02 07:31:28;;;;;;;25.92;14.55;;;;;;;18.44;48.12;102218.88;5043978;28;20060;-47
2023/04/02 07:33:58;;;;;;;25.75;13.27;;;;;;;18.41;47.79;102215.59;5047164;28;20041;-45
2023/04/02 07:36:27;;;;;;;23.65;13.20;;;;;;;18.39;47.99;102220.25;5046564;28;20352;-44
2023/04/02 07:38:54;;;;;;;25.23;14.75;;;;;;;18.36;48.04;102234.75;5046617;28;20125;-43
2023/04/02 07:41:22;;;;;;;25.13;13.70;;;;;;;18.33;48.26;102239.50;5047807;28;20427;-44
2023/04/02 07:43:49;;;;;;;24.15;13.90;;;;;;;18.31;48.16;102246.84;5046805;28;20388;-44
2023/04/02 07:46:17;;;;;;;24.25;13.60;;;;;;;18.26;48.28;102249.91;5039906;28;20753;-44
2023/04/02 07:48:45;;;;;;;25.80;15.15;;;;;;;18.22;48.13;102259.16;5044144;28;20051;-48
2023/04/02 07:51:16;;;;;;;23.73;14.35;;;;;;;18.14;48.26;102257.06;5040528;28;20079;-47
2023/04/02 07:53:43;;;;;;;25.58;14.48;;;;;;;18.09;48.31;102258.38;5043760;28;20128;-46
2023/04/02 07:56:17;;;;;;;30.25;15.20;;;;;;;18.02;48.82;102265.22;5040596;28;20051;-44
2023/04/02 07:58:44;;;;;;;27.58;15.95;;;;;;;17.96;49.04;102275.44;5044353;28;20538;-44
2023/04/02 08:01:22;;;;;;;28.40;15.25;;;;;;;17.89;48.56;102270.66;5038427;28;20068;-44
2023/04/02 08:03:49;;;;;;;28.27;15.85;;;;;;;17.83;48.77;102273.84;5039943;28;20601;-46
2023/04/02 08:06:20;;;;;;;24.88;14.55;;;;;;;17.78;48.96;102284.06;5046069;28;20049;-45
2023/04/02 08:08:47;;;;;;;27.75;16.40;;;;;;;17.71;49.03;102283.63;5046666;28;20372;-45
2023/04/02 08:11:13;;;;;;;25.55;15.57;;;;;;;17.69;49.54;102281.06;5029263;28;20055;-43
2023/04/02 08:13:40;;;;;;;31.35;17.63;;;;;;;17.74;49.95;102297.69;5035129;28;20132;-44
2023/04/02 08:16:07;;;;;;;45.90;25.92;;;;;;;17.85;50.02;102296.88;5026584;28;20049;-42
2023/04/02 08:18:35;;;;;;;71.28;39.08;;;;;;;17.98;49.27;102312.91;5031965;28;20394;-40
2023/04/02 08:21:05;;;;;;;80.47;42.88;;;;;;;18.12;49.25;102311.81;5035868;28;20124;-40
2023/04/02 08:23:32;;;;;;;75.15;39.95;;;;;;;18.21;48.66;102320.03;5039347;28;20183;-40
2023/04/02 08:25:58;;;;;;;78.95;41.97;;;;;;;18.32;48.62;102326.38;5037063;28;20067;-41
2023/04/02 08:28:25;;;;;;;65.43;36.22;;;;;;;18.43;48.81;102321.03;5041785;28;20135;-41
2023/04/02 08:30:52;;;;;;;64.63;36.22;;;;;;;18.53;48.30;102327.38;5041904;28;20456;-39
2023/04/02 08:33:19;;;;;;;71.88;38.30;;;;;;;18.62;48.38;102323.13;5042660;28;20049;-39
2023/04/02 08:35:48;;;;;;;70.10;38.22;;;;;;;18.71;47.96;102336.72;5040195;28;20396;-39
2023/04/02 08:38:16;;;;;;;65.88;37.25;;;;;;;18.79;47.72;102343.31;5041417;28;20687;-38
2023/04/02 08:40:45;;;;;;;62.83;34.88;;;;;;;18.85;48.18;102345.50;5039931;28;20144;-39
2023/04/02 08:43:30;;;;;;;61.95;33.55;;;;;;;18.90;48.25;102340.63;5042933;28;20056;-39
2023/04/02 08:46:07;;;;;;;58.15;31.48;;;;;;;18.95;48.00;102357.22;5041616;28;20044;-40
2023/04/02 08:48:37;;;;;;;57.25;32.88;;;;;;;18.97;47.84;102358.81;5043747;28;20051;-39
2023/04/02 08:51:15;;;;;;;56.22;30.10;;;;;;;18.99;47.95;102364.91;5042369;28;20621;-40
2023/04/02 08:53:41;;;;;;;55.42;32.05;;;;;;;19.02;47.93;102366.50;5041919;28;20332;-40
2023/04/02 08:56:17;;;;;;;55.30;30.95;;;;;;;19.04;47.94;102375.28;5037044;28;20052;-40
2023/04/02 08:59:04;;;;;;;52.70;29.67;;;;;;;19.05;48.08;102379.69;5041243;28;20384;-39
2023/04/02 09:01:50;;;;;;;50.65;29.90;;;;;;;19.07;48.05;102374.19;5039710;28;20131;-41
2023/04/02 09:04:20;;;;;;;52.58;28.92;;;;;;;19.08;48.07;102392.03;5040126;28;20053;-41
2023/04/02 09:06:48;;;;;;;51.67;28.70;;;;;;;19.05;48.12;102386.91;5034771;28;20103;-42
2023/04/02 09:09:16;;;;;;;59.00;31.02;;;;;;;19.02;48.12;102403.28;5037511;28;20059;-39
2023/04/02 09:11:59;;;;;;;54.78;29.88;;;;;;;19.04;49.03;102406.69;5042216;28;20064;-39
2023/04/02 09:14:40;;;;;;;60.78;33.03;;;;;;;19.05;49.37;102409.25;5039108;28;20437;-39
2023/04/02 09:17:19;;;;;;;64.03;35.88;;;;;;;19.05;50.20;102417.31;5042087;28;20076;-38
2023/04/02 09:20:22;;;;;;;64.82;36.72;;;;;;;19.00;50.25;102416.81;5040569;28;20063;-38
2023/04/02 09:22:50;;;;;;;67.60;36.95;;;;;;;19.04;50.33;102415.59;5034912;28;20053;-40
2023/04/02 09:25:24;;;;;;;69.78;38.75;;;;;;;19.10;50.14;102420.50;5036885;28;20041;-39
2023/04/02 09:27:52;;;;;;;;;;;;;;;19.21;50.45;102420.47;5039104;28;20348;-38
2023/04/02 09:30:30;;;;;;;82.60;43.97;;;;;;;19.37;50.23;102424.63;5039986;28;19924;-37
2023/04/02 09:33:06;;;;;;;81.40;44.22;;;;;;;19.51;49.67;102428.91;5042399;28;20061;-36
2023/04/02 09:35:54;;;;;;;71.05;40.88;;;;;;;19.66;50.18;102430.38;5037887;28;20203;-36
2023/04/02 09:38:29;;;;;;;70.28;40.10;;;;;;;19.83;49.58;102426.28;5041692;28;20396;-36
2023/04/02 09:41:05;;;;;;;70.25;39.22;;;;;;;19.96;49.19;102426.97;5036848;28;20451;-36
2023/04/02 09:43:37;;;;;;;71.43;40.13;;;;;;;20.11;48.93;102435.63;5040749;28;20049;-38
2023/04/02 09:46:25;;;;;;;70.47;38.67;;;;;;;20.21;48.58;102431.16;5037205;28;20099;-37
2023/04/02 09:48:57;;;;;;;66.43;37.20;;;;;;;20.25;48.67;102431.75;5040700;28;20052;-36
2023/04/02 09:51:26;;;;;;;81.60;38.15;;;;;;;20.23;48.54;102434.59;5039057;28;20048;-36
2023/04/02 09:54:01;;;;;;;92.95;39.13;;;;;;;20.19;48.60;102442.06;5038042;28;20049;-36
2023/04/02 09:56:36;;;;;;;77.55;37.42;;;;;;;20.20;47.95;102445.59;5034362;28;20053;-35
2023/04/02 09:59:04;;;;;;;75.63;37.47;;;;;;;20.20;49.06;102438.38;5041130;28;20053;-36
2023/04/02 10:01:43;;;;;;;74.55;37.30;;;;;;;20.18;48.54;102448.44;5037236;28;20414;-36
2023/04/02 10:04:34;;;;;;;74.30;36.10;;;;;;;20.17;49.12;102446.72;5039177;28;20467;-35
2023/04/02 10:07:02;;;;;;;85.00;36.55;;;;;;;20.18;49.09;102445.75;5040929;28;20139;-35
2023/04/02 10:09:29;;;;;;;64.97;33.28;;;;;;;20.20;49.72;102448.28;5037193;28;20064;-35
2023/04/02 10:11:58;;;;;;;86.68;35.58;;;;;;;20.19;48.89;102450.13;5038632;28;20049;-35
2023/04/02 10:14:33;;;;;;;73.97;31.85;;;;;;;20.21;49.87;102450.00;5038879;28;20140;-36
2023/04/02 10:17:12;;;;;;;75.93;29.92;;;;;;;20.22;50.42;102459.78;5037564;28;20056;-37
2023/04/02 10:19:48;;;;;;;60.60;28.60;;;;;;;20.19;50.88;102460.06;5038283;28;20053;-36
2023/04/02 10:22:17;;;;;;;250.55;122.63;;;;;;;20.07;46.45;102466.47;5042176;28;20055;-36
2023/04/02 10:24:43;;;;;;;151.40;71.13;;;;;;;20.03;46.72;102476.63;5037767;28;20072;-35
2023/04/02 10:27:33;;;;;;;128.57;60.72;;;;;;;20.00;49.22;102470.66;5034706;28;20079;-35
2023/04/02 10:30:06;;;;;;;116.25;54.58;;;;;;;19.99;48.87;102480.56;5036595;28;20049;-35
2023/04/02 10:32:47;;;;;;;140.13;68.15;;;;;;;19.94;48.64;102480.09;5035561;28;20067;-34
2023/04/02 10:35:33;;;;;;;108.80;54.75;;;;;;;19.96;49.16;102480.81;5035100;28;20287;-34
2023/04/02 10:38:23;;;;;;;96.75;45.97;;;;;;;19.99;49.18;102485.09;5038919;28;20060;-34
2023/04/02 10:40:59;;;;;;;87.55;45.40;;;;;;;20.01;48.66;102492.03;5033823;28;20079;-36
2023/04/02 10:43:35;;;;;;;94.38;49.63;;;;;;;20.00;48.05;102492.19;5040189;28;20055;-36
2023/04/02 10:46:07;;;;;;;79.47;38.67;;;;;;;20.00;48.31;102497.56;5040219;28;20056;-36
2023/04/02 10:49:03;;;;;;;89.10;46.85;;;;;;;20.01;47.78;102494.72;5039125;28;20048;-37
2023/04/02 10:51:49;;;;;;;71.25;37.80;;;;;;;20.05;48.33;102500.72;5040686;28;20130;-22
2023/04/02 10:54:34;;;;;;;74.45;36.50;;;;;;;20.04;47.69;102507.94;5040521;28;20135;-22
2023/04/02 10:57:22;;;;;;;96.75;46.25;;;;;;;20.06;45.33;102508.69;5035031;28;20139;-22
2023/04/02 11:00:04;;;;;;;90.15;42.08;;;;;;;20.13;47.49;102514.41;5041192;28;20049;-21
2023/04/02 11:02:51;;;;;;;66.70;34.88;;;;;;;20.25;47.44;102504.44;5046734;28;20049;-21
2023/04/02 11:05:18;;;;;;;61.05;33.67;;;;;;;20.38;46.99;102511.41;5041653;28;20997;-22
2023/04/02 11:07:52;;;;;;;64.85;33.40;;;;;;;20.49;46.88;102506.97;5044050;28;20057;-22
2023/04/02 11:10:20;;;;;;;62.38;31.60;;;;;;;20.59;46.60;102513.28;5047306;28;20052;-22
2023/04/02 11:13:12;;;;;;;57.47;30.70;;;;;;;20.66;46.07;102507.25;5046052;28;20120;-22
2023/04/02 11:15:39;;;;;;;51.95;28.75;;;;;;;20.76;45.91;102509.16;5040030;28;20052;-22
2023/04/02 11:18:05;;;;;;;51.35;28.05;;;;;;;20.82;45.37;102516.69;5043353;28;20041;-22
2023/04/02 11:20:47;;;;;;;54.03;28.60;;;;;;;20.85;44.32;102521.84;5044105;28;20329;-22
2023/04/02 11:23:17;;;;;;;51.80;27.08;;;;;;;20.90;45.00;102530.38;5043586;28;20059;-21
2023/04/02 11:25:45;;;;;;;47.60;26.65;;;;;;;20.93;45.02;102530.97;5040009;28;20045;-21
2023/04/02 11:28:29;;;;;;;48.70;27.08;;;;;;;20.95;45.15;102539.78;5045577;28;20060;-21
2023/04/02 11:30:57;;;;;;;49.10;26.25;;;;;;;21.01;45.11;102532.16;5049123;28;20057;-22
2023/04/02 11:33:42;;;;;;;45.85;26.35;;;;;;;21.01;44.52;102541.09;5050885;28;20049;-22
2023/04/02 11:36:53;;;;;;;43.33;24.05;;;;;;;21.05;44.14;102544.38;5046984;28;20433;-22
2023/04/02 11:39:48;;;;;;;44.88;23.65;;;;;;;21.07;43.84;102548.66;5047499;28;20052;-22
2023/04/02 11:42:18;;;;;;;45.30;24.08;;;;;;;21.10;44.54;102548.38;5048770;28;20084;-22
2023/04/02 11:44:44;;;;;;;42.15;23.02;;;;;;;21.10;44.43;102550.22;5048496;28;20045;-22
2023/04/02 11:47:17;;;;;;;39.78;22.35;;;;;;;21.10;44.03;102553.78;5051995;28;20076;-21
2023/04/02 11:49:53;;;;;;;39.83;21.63;;;;;;;21.12;43.84;102567.13;5050278;28;20076;-21
2023/04/02 11:52:33;;;;;;;38.38;21.13;;;;;;;21.15;44.42;102564.19;5051756;28;20052;-21